Time;durP1;ratioP1;P1;durP2;ratioP2;P2;SDS_P1;SDS_P2;PMS_P1;PMS_P2;Temp;Humidity;BMP_temperature;BMP_pressure;BME280_temperature;BME280_humidity;BME280_pressure;Samples;Min_cycle;Max_cycle;Signal;HPM_P1;HPM_P2
2021/12/25 00:00:45;;;;;;;7.93;6.40;;;10.80;99.90;;;;;;4972953;28;20227;-52
2021/12/25 00:03:11;;;;;;;6.43;5.83;;;10.70;99.90;;;;;;4973070;28;20188;-52
2021/12/25 00:05:37;;;;;;;6.40;5.80;;;10.30;99.90;;;;;;4972758;28;20455;-52
2021/12/25 00:08:03;;;;;;;5.77;4.80;;;10.70;99.90;;;;;;4970999;28;20956;-52
2021/12/25 00:10:30;;;;;;;5.77;5.27;;;10.70;99.90;;;;;;4972900;28;20243;-52
2021/12/25 00:12:57;;;;;;;5.55;4.97;;;10.90;99.90;;;;;;4972229;28;20480;-52
2021/12/25 00:15:23;;;;;;;5.63;4.85;;;10.80;99.90;;;;;;4972597;28;20216;-52
2021/12/25 00:17:48;;;;;;;6.23;5.60;;;10.80;99.90;;;;;;4971979;28;20592;-52
2021/12/25 00:20:15;;;;;;;5.80;5.30;;;10.90;99.90;;;;;;4965732;28;20173;-52
2021/12/25 00:22:40;;;;;;;5.40;4.90;;;10.70;99.90;;;;;;4973131;28;20440;-52
2021/12/25 00:25:06;;;;;;;6.00;5.50;;;10.90;99.90;;;;;;4972708;28;20750;-52
2021/12/25 00:34:05;;;;;;;5.95;5.35;;;10.80;99.90;;;;;;4944396;28;20200;-52
2021/12/25 00:36:05;;;;;;;6.30;4.90;;;10.60;99.90;;;;;;4961134;28;20675;-52
2021/12/25 00:38:31;;;;;;;5.73;4.87;;;10.60;99.90;;;;;;4973763;28;20217;-53
2021/12/25 00:40:58;;;;;;;5.22;4.72;;;10.60;99.90;;;;;;4972284;28;20192;-53
2021/12/25 00:43:23;;;;;;;5.55;5.05;;;10.40;99.90;;;;;;4971657;28;20195;-52
2021/12/25 00:45:49;;;;;;;6.20;4.93;;;10.30;99.90;;;;;;4972303;28;20184;-52
2021/12/25 00:48:15;;;;;;;5.33;4.83;;;10.60;99.90;;;;;;4971701;28;20213;-52
2021/12/25 00:50:40;;;;;;;6.50;4.63;;;10.40;99.90;;;;;;4972162;28;20473;-52
2021/12/25 00:53:06;;;;;;;5.07;4.67;;;10.40;99.90;;;;;;4971426;28;20592;-52
2021/12/25 00:55:32;;;;;;;6.03;5.20;;;10.40;99.90;;;;;;4972458;28;20239;-52
2021/12/25 00:57:58;;;;;;;5.65;5.10;;;10.30;99.90;;;;;;4969557;28;20189;-52
2021/12/25 01:00:24;;;;;;;5.97;5.47;;;10.40;99.90;;;;;;4972150;28;20650;-52
2021/12/25 01:02:49;;;;;;;5.53;5.00;;;10.20;99.90;;;;;;4971737;28;20701;-52
2021/12/25 01:05:17;;;;;;;5.70;5.20;;;10.20;99.90;;;;;;4972076;28;20188;-52
2021/12/25 01:07:43;;;;;;;6.10;5.40;;;10.00;99.90;;;;;;4971917;28;20812;-51
2021/12/25 01:10:15;;;;;;;6.63;4.60;;;10.10;99.90;;;;;;4971907;28;20193;-52
2021/12/25 01:13:08;;;;;;;6.35;4.90;;;10.20;99.90;;;;;;4976532;28;20197;-52
2021/12/25 01:39:40;;;;;;;6.63;5.55;;;10.20;99.90;;;;;;4971898;28;20215;-53
2021/12/25 01:50:09;;;;;;;6.18;5.47;;;9.60;99.90;;;;;;4971405;28;20179;-52
2021/12/25 01:52:36;;;;;;;6.60;5.68;;;10.00;99.90;;;;;;4971387;28;20224;-52
2021/12/25 01:55:08;;;;;;;7.00;5.80;;;9.40;99.90;;;;;;4971284;28;20200;-53
2021/12/25 01:57:34;;;;;;;5.40;4.90;;;9.70;99.90;;;;;;4980585;28;20627;-53
2021/12/25 02:00:00;;;;;;;7.13;5.73;;;9.70;99.90;;;;;;4971180;28;20299;-53
2021/12/25 02:02:27;;;;;;;5.90;5.10;;;10.00;99.90;;;;;;4971157;28;20196;-52
2021/12/25 02:04:52;;;;;;;6.50;5.45;;;9.70;99.90;;;;;;4994964;28;20200;-53
2021/12/25 02:07:19;;;;;;;6.23;5.67;;;9.70;99.90;;;;;;4970715;28;20193;-53
2021/12/25 02:09:45;;;;;;;6.95;6.30;;;9.90;99.90;;;;;;4971245;28;20546;-53
2021/12/25 02:12:12;;;;;;;6.25;5.45;;;9.90;99.90;;;;;;4970835;28;20271;-52
2021/12/25 02:14:41;;;;;;;6.55;5.95;;;9.70;99.90;;;;;;4971254;28;20243;-53
2021/12/25 02:17:22;;;;;;;6.32;5.43;;;10.10;99.90;;;;;;4970770;28;20661;-53
2021/12/25 02:20:06;;;;;;;7.57;5.65;;;10.10;99.90;;;;;;4971152;28;20243;-52
2021/12/25 02:22:33;;;;;;;7.93;5.72;;;9.70;99.90;;;;;;4970449;28;20219;-53
2021/12/25 02:24:59;;;;;;;6.68;5.85;;;9.80;99.90;;;;;;4971359;28;20189;-52
2021/12/25 02:27:24;;;;;;;6.13;5.53;;;9.80;99.90;;;;;;4970466;28;20528;-52
2021/12/25 02:29:50;;;;;;;6.40;5.80;;;9.70;99.90;;;;;;4971060;28;20215;-52
2021/12/25 02:32:16;;;;;;;7.33;5.67;;;9.70;99.90;;;;;;4974069;28;20245;-53
2021/12/25 02:34:43;;;;;;;7.10;5.30;;;9.30;99.90;;;;;;4974447;28;20456;-53
2021/12/25 02:37:08;;;;;;;6.50;5.90;;;9.80;99.90;;;;;;4976266;28;20681;-52
2021/12/25 02:39:34;;;;;;;6.83;5.53;;;9.70;99.90;;;;;;4981583;28;20283;-53
2021/12/25 02:42:00;;;;;;;5.45;4.75;;;9.60;99.90;;;;;;4973821;28;20243;-53
2021/12/25 02:44:26;;;;;;;5.83;5.27;;;9.50;99.90;;;;;;4974505;28;20216;-53
2021/12/25 02:46:54;;;;;;;7.10;5.90;;;9.40;99.90;;;;;;4974191;28;20649;-53
2021/12/25 02:49:21;;;;;;;5.90;5.30;;;9.70;99.90;;;;;;4974111;28;20204;-53
2021/12/25 02:51:47;;;;;;;6.40;5.70;;;9.70;99.90;;;;;;4979069;28;20195;-53
2021/12/25 02:54:13;;;;;;;8.73;5.38;;;9.50;99.90;;;;;;4974523;28;20189;-52
2021/12/25 02:56:39;;;;;;;7.28;6.43;;;9.70;99.90;;;;;;4973729;28;20223;-53
2021/12/25 02:59:05;;;;;;;8.93;5.95;;;9.50;99.90;;;;;;4973574;28;20204;-52
2021/12/25 03:01:31;;;;;;;6.50;5.40;;;9.70;99.90;;;;;;4974049;28;20188;-53
2021/12/25 03:03:57;;;;;;;6.40;5.73;;;9.70;99.90;;;;;;4974255;28;20705;-53
2021/12/25 03:06:25;;;;;;;6.43;5.83;;;9.90;99.90;;;;;;4973573;28;20439;-52
2021/12/25 03:08:51;;;;;;;7.82;6.45;;;9.90;99.90;;;;;;4973494;28;20200;-52
2021/12/25 03:11:17;;;;;;;6.45;5.85;;;9.90;99.90;;;;;;4974124;28;20199;-53
2021/12/25 03:13:56;;;;;;;7.20;5.77;;;9.90;99.90;;;;;;4973851;28;20267;-53
2021/12/25 03:16:22;;;;;;;7.00;6.13;;;9.30;99.90;;;;;;4973686;28;21001;-52
2021/12/25 03:18:51;;;;;;;6.57;5.03;;;9.60;99.90;;;;;;4973458;28;20613;-52
2021/12/25 03:21:18;;;;;;;6.60;5.80;;;9.80;99.90;;;;;;4974277;28;20188;-52
2021/12/25 03:23:44;;;;;;;6.65;5.95;;;9.60;99.90;;;;;;4973839;28;20435;-52
2021/12/25 03:26:10;;;;;;;6.72;6.03;;;9.90;99.90;;;;;;4973290;28;20693;-52
2021/12/25 03:28:40;;;;;;;7.20;6.40;;;9.70;99.90;;;;;;4976033;28;20713;-52
2021/12/25 03:31:15;;;;;;;10.10;6.32;;;10.10;99.90;;;;;;4973880;28;20189;-52
2021/12/25 03:33:41;;;;;;;6.75;5.95;;;9.70;99.90;;;;;;4973416;28;20585;-52
2021/12/25 03:36:07;;;;;;;5.80;5.20;;;9.60;99.90;;;;;;4972627;28;20204;-52
2021/12/25 03:38:32;;;;;;;5.53;4.50;;;9.50;99.90;;;;;;4971364;28;20247;-52
2021/12/25 03:41:00;;;;;;;5.20;4.53;;;9.70;99.90;;;;;;4972899;28;20827;-52
2021/12/25 03:43:26;;;;;;;6.65;4.88;;;9.50;99.90;;;;;;4972692;28;20196;-52
2021/12/25 03:45:52;;;;;;;5.50;4.97;;;9.70;99.90;;;;;;4981587;28;20196;-52
2021/12/25 03:59:05;;;;;;;4.55;3.33;;;9.60;99.90;;;;;;4972811;28;20210;-50
2021/12/25 04:01:44;;;;;;;2.78;2.55;;;10.00;99.90;;;;;;4973528;28;20244;-54
2021/12/25 04:04:25;;;;;;;3.55;2.55;;;9.70;99.90;;;;;;4977415;28;20180;-51
2021/12/25 04:07:05;;;;;;;3.22;2.92;;;9.90;99.90;;;;;;4981859;28;20192;-52
2021/12/25 04:09:33;;;;;;;4.20;3.72;;;9.70;99.90;;;;;;4972553;28;20216;-52
2021/12/25 04:12:08;;;;;;;3.40;2.95;;;9.70;99.90;;;;;;4972424;28;20185;-51
2021/12/25 04:14:34;;;;;;;11.65;4.85;;;9.90;99.90;;;;;;4972669;28;20180;-51
2021/12/25 04:17:00;;;;;;;3.10;2.80;;;9.50;99.90;;;;;;4972278;28;20208;-52
2021/12/25 04:19:26;;;;;;;2.97;2.50;;;9.90;99.90;;;;;;4974375;28;20919;-52
2021/12/25 04:24:18;;;;;;;3.42;3.13;;;10.20;99.90;;;;;;4972916;28;20411;-51
2021/12/25 04:26:45;;;;;;;3.43;2.80;;;10.00;99.90;;;;;;4972074;28;20243;-52
2021/12/25 05:04:52;;;;;;;4.15;3.85;;;9.40;99.90;;;;;;4971620;28;20654;-52
2021/12/25 05:07:18;;;;;;;4.18;3.40;;;9.20;99.90;;;;;;4971794;28;20263;-52
2021/12/25 05:09:43;;;;;;;4.67;3.33;;;9.70;99.90;;;;;;4971992;28;20309;-52
2021/12/25 05:12:09;;;;;;;3.70;3.40;;;9.70;99.90;;;;;;4975652;28;20673;-52
2021/12/25 05:14:35;;;;;;;4.37;3.90;;;9.70;99.90;;;;;;4971971;28;20255;-52
2021/12/25 05:17:01;;;;;;;4.18;3.78;;;9.70;99.90;;;;;;4971308;28;20464;-52
2021/12/25 05:19:26;;;;;;;4.40;3.33;;;9.60;99.90;;;;;;4971658;28;20204;-52
2021/12/25 05:21:52;;;;;;;4.23;3.73;;;9.70;99.90;;;;;;4971243;28;20203;-52
2021/12/25 05:24:18;;;;;;;4.47;4.07;;;9.60;99.90;;;;;;4971923;28;20184;-52
2021/12/25 05:26:44;;;;;;;3.90;3.27;;;9.50;99.90;;;;;;4971039;28;20535;-52
2021/12/25 05:29:10;;;;;;;3.80;3.38;;;9.50;99.90;;;;;;4971691;28;20883;-52
2021/12/25 05:31:37;;;;;;;3.95;3.05;;;9.50;99.90;;;;;;4971297;28;20202;-52
2021/12/25 05:34:03;;;;;;;4.10;3.65;;;9.60;99.90;;;;;;4970906;28;20265;-53
2021/12/25 05:36:29;;;;;;;4.55;3.60;;;9.40;99.90;;;;;;4971250;28;20212;-53
2021/12/25 05:38:58;;;;;;;3.22;2.92;;;9.70;99.90;;;;;;4971297;28;20212;-53
2021/12/25 05:41:30;;;;;;;3.60;3.30;;;9.60;99.90;;;;;;4972661;28;20199;-53
2021/12/25 05:43:56;;;;;;;3.60;3.30;;;9.50;99.90;;;;;;4983027;28;20300;-52
2021/12/25 05:46:24;;;;;;;3.90;3.50;;;9.50;99.90;;;;;;4974999;28;20193;-53
2021/12/25 05:48:50;;;;;;;4.70;4.18;;;9.70;99.90;;;;;;4971415;28;20579;-53
2021/12/25 05:51:18;;;;;;;3.90;3.53;;;9.60;99.90;;;;;;4968592;28;20193;-52
2021/12/25 05:53:44;;;;;;;6.07;3.80;;;9.70;99.90;;;;;;4971441;28;20196;-53
2021/12/25 05:56:10;;;;;;;5.15;3.60;;;9.70;99.90;;;;;;4970832;28;20255;-53
2021/12/25 05:58:35;;;;;;;5.13;4.43;;;9.70;99.90;;;;;;4961220;28;20234;-53
2021/12/25 06:01:02;;;;;;;4.93;4.47;;;9.60;99.90;;;;;;4972765;28;20910;-53
2021/12/25 06:03:28;;;;;;;5.50;4.90;;;9.60;99.90;;;;;;4981417;28;20220;-52
2021/12/25 06:05:54;;;;;;;5.37;4.57;;;9.60;99.90;;;;;;4973706;28;20568;-51
2021/12/25 06:08:19;;;;;;;5.13;4.50;;;9.90;99.90;;;;;;4974829;28;20231;-52
2021/12/25 06:10:46;;;;;;;5.13;4.63;;;9.50;99.90;;;;;;4974954;28;20205;-51
2021/12/25 06:13:17;;;;;;;5.00;4.40;;;9.70;99.90;;;;;;4974073;28;20267;-51
2021/12/25 06:15:43;;;;;;;6.15;4.65;;;9.70;99.90;;;;;;4974963;28;20208;-52
2021/12/25 06:18:10;;;;;;;5.22;4.75;;;9.90;99.90;;;;;;4977086;28;20204;-52
2021/12/25 06:20:36;;;;;;;5.07;4.57;;;9.60;99.90;;;;;;4980246;28;20180;-52
2021/12/25 06:23:02;;;;;;;5.63;4.67;;;9.80;99.90;;;;;;4984081;28;20268;-52
2021/12/25 06:25:28;;;;;;;6.80;5.27;;;9.70;99.90;;;;;;4975286;28;20471;-52
2021/12/25 06:27:54;;;;;;;6.33;5.10;;;10.10;99.90;;;;;;4969179;28;20451;-52
2021/12/25 06:30:20;;;;;;;5.80;5.17;;;9.40;99.90;;;;;;4974505;28;20452;-52
2021/12/25 06:32:45;;;;;;;5.87;4.73;;;9.70;99.90;;;;;;4974617;28;20435;-52
2021/12/25 06:35:12;;;;;;;5.50;4.70;;;9.90;99.90;;;;;;4978846;28;20554;-52
2021/12/25 06:37:40;;;;;;;6.32;5.38;;;9.70;99.90;;;;;;4974554;28;20189;-52
2021/12/25 06:40:07;;;;;;;6.18;4.75;;;9.60;99.90;;;;;;4975053;28;20528;-52
2021/12/25 06:42:33;;;;;;;5.30;4.80;;;9.80;99.90;;;;;;4984819;28;20192;-52
2021/12/25 06:44:59;;;;;;;5.37;4.87;;;9.60;99.90;;;;;;4976109;28;20195;-52
2021/12/25 06:47:24;;;;;;;6.53;5.10;;;9.80;99.90;;;;;;4974261;28;20684;-52
2021/12/25 06:49:50;;;;;;;5.67;5.17;;;9.70;99.90;;;;;;4973794;28;20588;-52
2021/12/25 06:52:16;;;;;;;7.23;4.57;;;9.90;99.90;;;;;;4977846;28;20185;-51
2021/12/25 06:54:42;;;;;;;6.50;5.27;;;10.00;99.90;;;;;;4975960;28;20545;-51
2021/12/25 06:57:07;;;;;;;5.30;4.70;;;10.00;99.90;;;;;;4973184;28;20471;-52
2021/12/25 06:59:33;;;;;;;5.63;5.07;;;10.20;99.90;;;;;;4974314;28;20239;-52
2021/12/25 07:01:59;;;;;;;5.33;4.77;;;9.60;99.90;;;;;;4974155;28;20267;-51
2021/12/25 07:04:24;;;;;;;8.30;5.40;;;10.10;99.90;;;;;;4974186;28;20176;-52
2021/12/25 07:06:50;;;;;;;4.50;4.10;;;9.80;99.90;;;;;;4973579;28;20197;-51
2021/12/25 07:09:16;;;;;;;5.63;5.03;;;9.90;99.90;;;;;;4974283;28;20688;-52
2021/12/25 07:11:43;;;;;;;5.97;5.23;;;10.10;99.90;;;;;;4984888;28;20189;-52
2021/12/25 07:14:11;;;;;;;5.32;4.80;;;10.00;99.90;;;;;;4971733;28;20309;-52
2021/12/25 07:16:37;;;;;;;5.90;5.13;;;9.80;99.90;;;;;;4973251;28;20247;-52
2021/12/25 07:19:03;;;;;;;7.97;5.20;;;9.60;99.90;;;;;;4973093;28;20382;-52
2021/12/25 07:21:29;;;;;;;5.20;4.57;;;9.80;99.90;;;;;;4973821;28;20239;-52
2021/12/25 07:23:55;;;;;;;5.25;4.75;;;9.70;99.90;;;;;;4973680;28;20561;-52
2021/12/25 07:26:21;;;;;;;5.90;4.60;;;9.80;99.90;;;;;;4975171;28;20207;-52
2021/12/25 07:28:48;;;;;;;5.57;4.90;;;9.80;99.90;;;;;;4973250;28;20761;-52
2021/12/25 07:31:14;;;;;;;5.13;4.60;;;9.90;99.90;;;;;;4973656;28;20184;-52
2021/12/25 07:33:40;;;;;;;5.72;5.22;;;9.50;99.90;;;;;;4973380;28;20200;-52
2021/12/25 07:36:08;;;;;;;5.00;4.50;;;10.10;99.90;;;;;;4973144;28;20200;-52
2021/12/25 07:38:34;;;;;;;5.22;4.72;;;10.00;99.90;;;;;;4973083;28;20654;-52
2021/12/25 07:41:00;;;;;;;5.05;4.40;;;10.20;99.90;;;;;;4973387;28;20737;-52
2021/12/25 07:43:26;;;;;;;5.22;4.72;;;10.10;99.90;;;;;;4990078;28;20192;-52
2021/12/25 07:45:52;;;;;;;4.80;4.17;;;10.10;99.90;;;;;;4981296;28;20567;-52
2021/12/25 07:48:20;;;;;;;4.83;4.43;;;10.30;99.90;;;;;;4973006;28;20208;-51
2021/12/25 07:50:48;;;;;;;4.75;4.20;;;10.10;99.90;;;;;;4972754;28;20518;-52
2021/12/25 07:53:16;;;;;;;4.15;3.80;;;10.50;99.90;;;;;;4972663;28;20269;-53
2021/12/25 07:55:42;;;;;;;5.28;4.10;;;10.40;99.90;;;;;;4973160;28;20208;-53
2021/12/25 07:58:08;;;;;;;5.15;4.55;;;10.30;99.90;;;;;;4971936;28;20212;-52
2021/12/25 08:00:34;;;;;;;4.23;3.83;;;10.70;99.90;;;;;;4974168;28;20193;-53
2021/12/25 08:03:00;;;;;;;4.78;4.38;;;10.40;99.90;;;;;;4972804;28;20183;-53
2021/12/25 08:05:26;;;;;;;4.20;3.80;;;10.50;99.90;;;;;;4984244;28;20558;-52
2021/12/25 08:07:52;;;;;;;5.87;4.57;;;10.10;99.90;;;;;;4971585;28;20184;-52
2021/12/25 08:10:19;;;;;;;4.77;4.30;;;10.40;99.90;;;;;;4973034;28;20690;-52
2021/12/25 08:12:56;;;;;;;5.18;4.10;;;10.30;99.90;;;;;;4972207;28;20789;-53
2021/12/25 08:15:24;;;;;;;5.70;4.10;;;10.40;99.90;;;;;;4972655;28;20208;-53
2021/12/25 08:17:50;;;;;;;5.15;4.30;;;10.20;99.90;;;;;;4973003;28;20181;-53
2021/12/25 08:20:17;;;;;;;4.93;4.43;;;10.20;99.90;;;;;;4972865;28;20181;-53
2021/12/25 08:22:43;;;;;;;4.22;3.85;;;10.30;99.90;;;;;;4971931;28;20650;-53
2021/12/25 08:25:11;;;;;;;4.80;4.30;;;10.30;99.90;;;;;;4972068;28;20200;-53
2021/12/25 08:27:38;;;;;;;5.63;3.90;;;10.10;99.90;;;;;;4971954;28;20247;-53
2021/12/25 08:30:07;;;;;;;3.30;3.00;;;10.70;99.90;;;;;;4972594;28;20668;-53
2021/12/25 08:32:33;;;;;;;4.05;3.67;;;10.40;99.90;;;;;;4972372;28;20244;-53
2021/12/25 08:34:59;;;;;;;3.63;3.33;;;10.70;99.90;;;;;;4972119;28;20678;-53
2021/12/25 08:37:26;;;;;;;4.28;3.88;;;10.70;99.90;;;;;;4972709;28;20189;-53
2021/12/25 08:39:53;;;;;;;4.55;4.05;;;10.60;99.90;;;;;;4972247;28;20201;-53
2021/12/25 08:42:20;;;;;;;3.95;3.47;;;10.70;99.90;;;;;;4980920;28;20568;-52
2021/12/25 08:45:37;;;;;;;4.53;3.90;;;10.50;99.90;;;;;;4975965;28;20181;-53
2021/12/25 08:47:38;;;;;;;4.28;3.88;;;10.40;99.90;;;;;;4972822;28;20552;-52
2021/12/25 08:50:10;;;;;;;5.97;5.00;;;10.70;99.90;;;;;;4971583;28;20211;-53
2021/12/25 08:52:36;;;;;;;6.00;5.05;;;10.40;99.90;;;;;;4973375;28;20487;-52
2021/12/25 08:55:03;;;;;;;8.18;5.22;;;10.80;99.90;;;;;;4972118;28;20197;-52
2021/12/25 08:57:30;;;;;;;4.68;4.28;;;10.80;99.90;;;;;;4971669;28;20267;-52
2021/12/25 08:59:57;;;;;;;5.20;4.70;;;10.90;99.90;;;;;;4971888;28;20205;-52
2021/12/25 09:02:23;;;;;;;5.15;4.20;;;10.90;99.90;;;;;;4971810;28;20919;-52
2021/12/25 09:04:51;;;;;;;4.85;4.45;;;10.80;99.90;;;;;;4971890;28;20186;-52
2021/12/25 09:07:17;;;;;;;4.22;3.60;;;10.90;99.90;;;;;;4974574;28;20206;-52
2021/12/25 09:09:43;;;;;;;4.35;3.95;;;11.10;99.90;;;;;;4972051;28;20210;-52
2021/12/25 09:12:12;;;;;;;4.10;3.60;;;10.80;99.90;;;;;;4978114;28;20199;-52
2021/12/25 09:14:38;;;;;;;4.55;4.15;;;11.00;99.90;;;;;;4970628;28;20594;-51
2021/12/25 09:17:04;;;;;;;6.03;4.23;;;11.40;99.90;;;;;;4971674;28;20220;-52
2021/12/25 09:19:30;;;;;;;4.07;3.28;;;11.20;99.90;;;;;;4974095;28;20687;-52
2021/12/25 09:21:57;;;;;;;3.80;3.50;;;11.20;99.90;;;;;;4971675;28;20276;-52
2021/12/25 09:24:23;;;;;;;3.88;3.47;;;11.20;99.90;;;;;;4971810;28;20318;-51
2021/12/25 09:26:49;;;;;;;4.88;3.80;;;11.30;99.90;;;;;;4972777;28;20543;-51
2021/12/25 09:29:14;;;;;;;5.60;4.50;;;11.10;99.90;;;;;;4971516;28;20211;-51
2021/12/25 09:31:40;;;;;;;5.50;4.87;;;11.00;99.90;;;;;;4971464;28;20329;-52
2021/12/25 09:34:06;;;;;;;6.40;5.50;;;11.10;99.90;;;;;;4971569;28;20213;-52
2021/12/25 09:36:32;;;;;;;5.00;4.43;;;11.00;99.90;;;;;;4974070;28;20218;-51
2021/12/25 09:38:58;;;;;;;4.63;4.13;;;11.00;99.90;;;;;;4971228;28;20212;-52
2021/12/25 09:41:24;;;;;;;3.83;3.42;;;11.20;99.90;;;;;;4976675;28;20744;-52
2021/12/25 09:43:50;;;;;;;3.43;3.07;;;11.10;99.90;;;;;;4978126;28;20333;-51
2021/12/25 09:46:20;;;;;;;3.80;3.40;;;11.20;99.90;;;;;;4975425;28;20189;-52
2021/12/25 09:48:47;;;;;;;3.90;3.60;;;11.20;99.90;;;;;;4975573;28;20213;-52
2021/12/25 09:51:13;;;;;;;3.85;3.55;;;11.10;99.90;;;;;;4975996;28;20190;-51
2021/12/25 09:53:40;;;;;;;4.40;3.50;;;11.40;99.90;;;;;;4975279;28;20189;-52
2021/12/25 09:56:06;;;;;;;3.40;2.88;;;11.40;99.90;;;;;;4975117;28;20288;-51
2021/12/25 09:58:32;;;;;;;3.58;3.28;;;11.40;99.90;;;;;;4975082;28;20217;-53
2021/12/25 10:00:58;;;;;;;3.87;3.20;;;11.40;99.90;;;;;;4976694;28;20194;-53
2021/12/25 10:03:45;;;;;;;4.20;3.80;;;11.30;99.90;;;;;;4975309;28;20888;-52
2021/12/25 10:06:28;;;;;;;4.20;3.33;;;11.40;99.90;;;;;;4974858;28;20193;-52
2021/12/25 10:08:53;;;;;;;2.33;2.13;;;11.30;99.90;;;;;;4974663;28;20211;-52
2021/12/25 10:11:19;;;;;;;4.30;3.20;;;11.50;99.90;;;;;;4974527;28;20261;-52
2021/12/25 10:13:46;;;;;;;3.07;2.87;;;11.50;99.90;;;;;;4974847;28;20195;-54
2021/12/25 10:16:26;;;;;;;2.72;2.50;;;11.00;99.90;;;;;;4975184;28;20252;-52
2021/12/25 10:18:55;;;;;;;3.60;3.30;;;11.80;99.90;;;;;;4974648;28;20203;-52
2021/12/25 10:21:23;;;;;;;3.47;2.80;;;11.70;99.90;;;;;;4974064;28;20232;-52
2021/12/25 10:24:16;;;;;;;3.75;3.00;;;11.80;99.90;;;;;;4974934;28;20181;-52
2021/12/25 10:26:44;;;;;;;4.18;2.20;;;11.60;99.90;;;;;;4977832;28;20187;-53
2021/12/25 10:29:21;;;;;;;1.67;1.33;;;11.70;99.90;;;;;;4962047;28;20567;-53
2021/12/25 10:31:47;;;;;;;2.08;1.88;;;11.10;99.90;;;;;;4974254;28;20674;-53
2021/12/25 10:34:19;;;;;;;1.95;1.75;;;11.50;99.90;;;;;;4975244;28;20223;-53
2021/12/25 10:36:46;;;;;;;1.98;1.88;;;11.80;99.90;;;;;;4973799;28;20724;-53
2021/12/25 10:39:23;;;;;;;1.83;1.55;;;11.80;99.90;;;;;;4974318;28;20254;-53
2021/12/25 10:42:11;;;;;;;2.35;2.00;;;11.90;99.90;;;;;;4978887;28;20191;-53
2021/12/25 10:44:43;;;;;;;2.58;1.60;;;11.70;99.90;;;;;;4979438;28;20214;-52
2021/12/25 10:47:21;;;;;;;1.95;1.83;;;11.40;99.90;;;;;;4974079;28;20202;-52
2021/12/25 10:49:55;;;;;;;1.88;1.50;;;11.90;99.90;;;;;;4974345;28;20231;-53
2021/12/25 10:52:32;;;;;;;3.20;1.67;;;12.00;99.90;;;;;;4980078;28;20189;-52
2021/12/25 10:55:01;;;;;;;2.38;1.50;;;12.10;99.90;;;;;;4972278;28;20191;-51
2021/12/25 10:57:42;;;;;;;2.00;1.50;;;11.90;99.90;;;;;;4973414;28;20649;-52
2021/12/25 11:00:30;;;;;;;1.90;1.48;;;12.10;99.90;;;;;;4974224;28;20192;-52
2021/12/25 11:03:00;;;;;;;8.30;5.07;;;12.20;99.90;;;;;;4973716;28;20199;-52
2021/12/25 11:05:28;;;;;;;2.30;2.10;;;12.40;99.90;;;;;;4972477;28;20189;-53
2021/12/25 11:08:06;;;;;;;2.65;2.45;;;12.60;99.90;;;;;;4973871;28;20246;-53
2021/12/25 11:11:02;;;;;;;1.50;1.20;;;13.10;99.90;;;;;;4973672;28;20200;-53
2021/12/25 11:13:36;;;;;;;1.75;1.30;;;13.40;99.90;;;;;;4964097;28;20279;-53
2021/12/25 11:16:27;;;;;;;1.90;1.75;;;13.80;99.90;;;;;;4973921;28;20222;-53
2021/12/25 11:19:06;;;;;;;1.65;1.48;;;13.70;99.90;;;;;;4972701;28;20212;-52
2021/12/25 11:21:36;;;;;;;4.40;1.17;;;13.90;99.90;;;;;;4973758;28;20271;-52
2021/12/25 11:24:15;;;;;;;2.88;2.58;;;13.50;99.90;;;;;;4972916;28;20197;-53
2021/12/25 11:26:44;;;;;;;1.90;1.27;;;13.40;99.90;;;;;;4972905;28;20187;-53
2021/12/25 11:29:13;;;;;;;1.95;1.52;;;13.40;99.90;;;;;;4973443;28;20291;-54
2021/12/25 11:31:41;;;;;;;1.40;1.30;;;13.60;99.90;;;;;;4973261;28;20243;-54
2021/12/25 11:34:07;;;;;;;1.52;1.30;;;13.90;99.90;;;;;;4973434;28;20195;-53
2021/12/25 11:36:36;;;;;;;2.13;2.00;;;13.70;99.90;;;;;;4982887;28;20569;-50
2021/12/25 11:39:02;;;;;;;1.58;1.30;;;13.40;99.90;;;;;;4972978;28;20474;-54
2021/12/25 11:41:30;;;;;;;1.63;1.30;;;13.40;99.90;;;;;;4977021;28;20235;-54
2021/12/25 11:43:57;;;;;;;1.75;1.40;;;13.40;99.90;;;;;;4983599;28;20262;-54
2021/12/25 11:46:37;;;;;;;1.60;1.20;;;13.50;99.90;;;;;;4973099;28;20298;-54
2021/12/25 11:49:06;;;;;;;1.40;1.30;;;13.40;99.90;;;;;;4973810;28;20695;-54
2021/12/25 11:51:31;;;;;;;2.00;1.65;;;13.50;99.90;;;;;;4975058;28;20188;-54
2021/12/25 11:56:42;;;;;;;1.20;1.10;;;13.40;99.90;;;;;;4974344;28;20212;-53
2021/12/25 11:59:14;;;;;;;1.80;1.17;;;13.30;99.90;;;;;;4989182;28;20203;-53
2021/12/25 12:01:49;;;;;;;1.60;1.30;;;13.30;99.90;;;;;;4973116;28;20400;-52
2021/12/25 12:04:24;;;;;;;1.67;1.42;;;13.40;99.90;;;;;;4987595;28;20194;-52
2021/12/25 12:06:59;;;;;;;3.20;1.40;;;13.60;99.90;;;;;;4965855;28;20662;-52
2021/12/25 12:09:24;;;;;;;8.27;7.15;;;13.40;99.90;;;;;;4970639;28;20525;-52
2021/12/25 12:12:12;;;;;;;8.63;6.40;;;13.40;99.90;;;;;;4972336;28;20184;-51
2021/12/25 12:14:38;;;;;;;1.50;1.25;;;13.00;99.90;;;;;;4953342;28;20203;-52
2021/12/25 12:17:17;;;;;;;1.30;1.17;;;13.00;99.90;;;;;;4975898;28;20208;-52
2021/12/25 12:19:45;;;;;;;1.30;1.20;;;12.80;99.90;;;;;;4972627;28;20203;-52
2021/12/25 12:22:16;;;;;;;1.05;0.95;;;12.90;99.90;;;;;;4971995;28;20688;-51
2021/12/25 12:25:13;;;;;;;3.05;1.70;;;12.90;99.90;;;;;;4970218;28;20212;-52
2021/12/25 12:27:39;;;;;;;1.50;1.40;;;12.60;99.90;;;;;;4975545;28;20183;-52
2021/12/25 12:30:31;;;;;;;3.15;2.60;;;12.40;99.90;;;;;;4972423;28;20200;-54
2021/12/25 12:32:58;;;;;;;1.95;1.85;;;12.30;99.90;;;;;;4981113;28;20195;-52
2021/12/25 12:35:28;;;;;;;1.63;1.52;;;12.60;99.90;;;;;;4973639;28;20238;-52
2021/12/25 12:37:54;;;;;;;3.42;1.85;;;12.40;99.90;;;;;;4972001;28;20187;-52
2021/12/25 12:40:25;;;;;;;2.42;1.63;;;12.50;99.90;;;;;;4972293;28;20270;-52
2021/12/25 12:42:56;;;;;;;2.28;1.23;;;12.40;99.90;;;;;;4984270;28;20290;-53
2021/12/25 12:45:27;;;;;;;4.40;1.60;;;12.50;99.90;;;;;;4972403;28;20179;-52
2021/12/25 12:48:18;;;;;;;1.70;1.60;;;12.20;99.90;;;;;;4971677;28;20223;-52
2021/12/25 12:50:47;;;;;;;1.35;1.15;;;12.10;99.90;;;;;;4975376;28;20187;-52
2021/12/25 12:53:13;;;;;;;2.92;2.50;;;12.30;99.90;;;;;;4971681;28;20241;-52
2021/12/25 12:55:42;;;;;;;2.15;1.95;;;12.30;99.90;;;;;;4986703;28;20241;-53
2021/12/25 12:58:16;;;;;;;1.45;1.20;;;12.30;99.90;;;;;;4971233;28;20206;-52
2021/12/25 13:00:46;;;;;;;1.67;1.50;;;12.30;99.90;;;;;;4972101;28;20732;-52
2021/12/25 13:03:12;;;;;;;1.50;1.40;;;12.00;99.90;;;;;;4971963;28;20190;-55
2021/12/25 13:05:41;;;;;;;2.22;1.63;;;12.30;99.90;;;;;;4971247;28;20198;-54
2021/12/25 13:08:17;;;;;;;1.50;1.40;;;12.10;99.90;;;;;;4997378;28;20273;-54
2021/12/25 13:10:52;;;;;;;1.38;1.27;;;12.50;99.90;;;;;;4971860;28;20187;-54
2021/12/25 13:13:31;;;;;;;2.70;1.90;;;12.20;99.90;;;;;;4971287;28;20215;-52
2021/12/25 13:15:59;;;;;;;2.17;1.75;;;12.40;99.90;;;;;;4971222;28;20278;-52
2021/12/25 13:18:30;;;;;;;2.67;2.00;;;12.20;99.90;;;;;;4971853;28;20211;-52
2021/12/25 13:20:57;;;;;;;1.85;1.73;;;12.00;99.90;;;;;;4971274;28;20178;-52
2021/12/25 13:23:56;;;;;;;1.67;1.58;;;12.20;99.90;;;;;;4976016;28;20185;-54
2021/12/25 13:26:31;;;;;;;2.80;2.20;;;12.30;99.90;;;;;;4971179;28;20191;-52
2021/12/25 13:28:58;;;;;;;2.47;1.85;;;12.10;99.90;;;;;;4971709;28;20612;-53
2021/12/25 13:31:26;;;;;;;1.95;1.85;;;12.20;99.90;;;;;;4971111;28;20188;-53
2021/12/25 13:34:00;;;;;;;2.30;2.00;;;12.10;99.90;;;;;;4971661;28;20205;-52
2021/12/25 13:36:28;;;;;;;3.40;2.00;;;12.00;99.90;;;;;;4971049;28;20217;-53
2021/12/25 13:39:07;;;;;;;2.47;1.77;;;11.80;99.90;;;;;;4970993;28;20229;-53
2021/12/25 13:41:41;;;;;;;2.15;1.95;;;11.90;99.90;;;;;;4974291;28;20197;-52
2021/12/25 13:44:19;;;;;;;1.83;1.73;;;12.00;99.90;;;;;;4980382;28;20656;-53
2021/12/25 13:46:51;;;;;;;3.03;2.30;;;11.80;99.90;;;;;;4971600;28;20186;-53
2021/12/25 13:49:33;;;;;;;2.03;1.90;;;11.60;99.90;;;;;;4972720;28;20213;-53
2021/12/25 13:52:03;;;;;;;2.65;2.45;;;11.60;99.90;;;;;;4971601;28;20188;-52
2021/12/25 13:54:29;;;;;;;3.58;2.40;;;11.50;99.90;;;;;;4971372;28;20673;-53
2021/12/25 13:56:56;;;;;;;3.43;2.30;;;11.50;99.90;;;;;;4975112;28;20255;-52
2021/12/25 13:59:23;;;;;;;2.72;2.20;;;11.30;99.90;;;;;;4971284;28;20504;-53
2021/12/25 14:01:58;;;;;;;2.50;2.17;;;11.30;99.90;;;;;;4971556;28;20260;-53
2021/12/25 14:04:24;;;;;;;3.45;2.45;;;11.10;99.90;;;;;;4971069;28;20225;-53
2021/12/25 14:06:50;;;;;;;4.00;3.47;;;11.10;99.90;;;;;;4977860;28;20646;-53
2021/12/25 14:09:16;;;;;;;3.60;3.20;;;11.20;99.90;;;;;;4973749;28;20460;-53
2021/12/25 14:11:52;;;;;;;2.90;2.60;;;11.30;99.90;;;;;;4974620;28;20193;-53
2021/12/25 14:14:19;;;;;;;3.92;3.22;;;11.20;99.90;;;;;;4971882;28;20228;-53
2021/12/25 14:16:46;;;;;;;2.65;2.45;;;11.10;99.90;;;;;;4971033;28;20267;-53
2021/12/25 14:19:13;;;;;;;5.53;3.90;;;11.00;99.90;;;;;;4970260;28;20218;-52
2021/12/25 14:21:56;;;;;;;3.45;3.15;;;11.10;99.90;;;;;;4986311;28;20642;-52
2021/12/25 14:24:22;;;;;;;4.03;3.17;;;11.30;99.90;;;;;;4971415;28;20187;-53
2021/12/25 14:26:49;;;;;;;4.20;3.70;;;11.00;99.90;;;;;;4976787;28;20216;-52
2021/12/25 14:29:21;;;;;;;3.60;3.30;;;11.00;99.90;;;;;;4974473;28;20569;-53